sensor_id;sensor_type;location;lat;lon;timestamp;P1;durP1;ratioP1;P2;durP2;ratioP2
61393;SDS011;48555;50.952;-0.120;2024-02-04T00:01:47;10.40;;;3.17;;
61393;SDS011;48555;50.952;-0.120;2024-02-04T00:04:12;11.25;;;3.35;;
61393;SDS011;48555;50.952;-0.120;2024-02-04T00:06:37;10.13;;;3.70;;
61393;SDS011;48555;50.952;-0.120;2024-02-04T00:09:03;15.73;;;3.08;;
61393;SDS011;48555;50.952;-0.120;2024-02-04T00:11:31;11.27;;;3.38;;
61393;SDS011;48555;50.952;-0.120;2024-02-04T00:13:57;12.35;;;3.30;;
61393;SDS011;48555;50.952;-0.120;2024-02-04T00:16:22;10.38;;;3.72;;
61393;SDS011;48555;50.952;-0.120;2024-02-04T00:18:47;9.50;;;3.50;;
61393;SDS011;48555;50.952;-0.120;2024-02-04T00:21:13;10.15;;;3.10;;
61393;SDS011;48555;50.952;-0.120;2024-02-04T00:23:38;10.65;;;3.58;;
61393;SDS011;48555;50.952;-0.120;2024-02-04T00:26:03;12.23;;;3.33;;
61393;SDS011;48555;50.952;-0.120;2024-02-04T00:28:29;11.32;;;3.30;;
61393;SDS011;48555;50.952;-0.120;2024-02-04T00:30:54;11.30;;;3.03;;
61393;SDS011;48555;50.952;-0.120;2024-02-04T00:33:24;9.75;;;3.10;;
61393;SDS011;48555;50.952;-0.120;2024-02-04T00:35:49;8.68;;;3.22;;
61393;SDS011;48555;50.952;-0.120;2024-02-04T00:38:14;6.75;;;3.10;;
61393;SDS011;48555;50.952;-0.120;2024-02-04T00:40:40;10.05;;;3.40;;
61393;SDS011;48555;50.952;-0.120;2024-02-04T00:43:05;10.43;;;3.33;;
61393;SDS011;48555;50.952;-0.120;2024-02-04T00:45:31;10.05;;;3.28;;
61393;SDS011;48555;50.952;-0.120;2024-02-04T00:47:56;7.95;;;3.10;;
61393;SDS011;48555;50.952;-0.120;2024-02-04T00:50:21;9.43;;;3.35;;
61393;SDS011;48555;50.952;-0.120;2024-02-04T00:52:47;7.18;;;3.10;;
61393;SDS011;48555;50.952;-0.120;2024-02-04T00:55:12;6.05;;;2.92;;
61393;SDS011;48555;50.952;-0.120;2024-02-04T00:57:37;8.02;;;3.20;;
61393;SDS011;48555;50.952;-0.120;2024-02-04T01:00:03;10.52;;;3.17;;
61393;SDS011;48555;50.952;-0.120;2024-02-04T01:02:29;7.72;;;2.60;;
61393;SDS011;48555;50.952;-0.120;2024-02-04T01:04:54;7.10;;;2.78;;
61393;SDS011;48555;50.952;-0.120;2024-02-04T01:07:20;8.35;;;2.80;;
61393;SDS011;48555;50.952;-0.120;2024-02-04T01:09:45;7.18;;;2.70;;
61393;SDS011;48555;50.952;-0.120;2024-02-04T01:12:10;8.75;;;2.55;;
61393;SDS011;48555;50.952;-0.120;2024-02-04T01:14:36;5.05;;;2.30;;
61393;SDS011;48555;50.952;-0.120;2024-02-04T01:17:01;8.40;;;3.00;;
61393;SDS011;48555;50.952;-0.120;2024-02-04T01:19:27;6.60;;;2.03;;
61393;SDS011;48555;50.952;-0.120;2024-02-04T01:21:52;5.82;;;1.92;;
61393;SDS011;48555;50.952;-0.120;2024-02-04T01:24:18;5.20;;;1.80;;
61393;SDS011;48555;50.952;-0.120;2024-02-04T01:26:43;5.43;;;2.30;;
61393;SDS011;48555;50.952;-0.120;2024-02-04T01:29:08;4.55;;;1.77;;
61393;SDS011;48555;50.952;-0.120;2024-02-04T01:31:34;5.82;;;1.95;;
61393;SDS011;48555;50.952;-0.120;2024-02-04T01:33:59;4.57;;;1.95;;
61393;SDS011;48555;50.952;-0.120;2024-02-04T01:36:24;7.13;;;2.08;;
61393;SDS011;48555;50.952;-0.120;2024-02-04T01:38:50;5.47;;;1.73;;
61393;SDS011;48555;50.952;-0.120;2024-02-04T01:41:15;5.15;;;1.70;;
61393;SDS011;48555;50.952;-0.120;2024-02-04T01:43:40;4.82;;;1.65;;
61393;SDS011;48555;50.952;-0.120;2024-02-04T01:46:06;6.55;;;1.70;;
61393;SDS011;48555;50.952;-0.120;2024-02-04T01:48:32;3.47;;;1.67;;
61393;SDS011;48555;50.952;-0.120;2024-02-04T01:50:57;5.88;;;1.77;;
61393;SDS011;48555;50.952;-0.120;2024-02-04T01:53:24;6.20;;;2.00;;
61393;SDS011;48555;50.952;-0.120;2024-02-04T01:55:52;5.57;;;1.90;;
61393;SDS011;48555;50.952;-0.120;2024-02-04T01:58:19;4.25;;;1.90;;
61393;SDS011;48555;50.952;-0.120;2024-02-04T02:00:45;5.53;;;2.13;;
61393;SDS011;48555;50.952;-0.120;2024-02-04T02:03:11;4.10;;;1.80;;
61393;SDS011;48555;50.952;-0.120;2024-02-04T02:05:37;5.72;;;1.80;;
61393;SDS011;48555;50.952;-0.120;2024-02-04T02:08:04;5.03;;;2.00;;
61393;SDS011;48555;50.952;-0.120;2024-02-04T02:10:30;6.10;;;2.00;;
61393;SDS011;48555;50.952;-0.120;2024-02-04T02:13:11;5.32;;;1.83;;
61393;SDS011;48555;50.952;-0.120;2024-02-04T02:15:47;5.35;;;2.20;;
61393;SDS011;48555;50.952;-0.120;2024-02-04T02:18:25;6.55;;;2.00;;
61393;SDS011;48555;50.952;-0.120;2024-02-04T02:21:10;5.38;;;1.73;;
61393;SDS011;48555;50.952;-0.120;2024-02-04T02:23:54;6.65;;;1.98;;
61393;SDS011;48555;50.952;-0.120;2024-02-04T02:26:27;5.07;;;1.67;;
61393;SDS011;48555;50.952;-0.120;2024-02-04T02:28:53;4.18;;;1.67;;
61393;SDS011;48555;50.952;-0.120;2024-02-04T02:31:18;6.50;;;2.47;;
61393;SDS011;48555;50.952;-0.120;2024-02-04T02:33:43;3.05;;;1.48;;
61393;SDS011;48555;50.952;-0.120;2024-02-04T02:36:10;4.38;;;1.67;;
61393;SDS011;48555;50.952;-0.120;2024-02-04T02:38:44;2.55;;;1.50;;
61393;SDS011;48555;50.952;-0.120;2024-02-04T02:41:15;5.75;;;1.98;;
61393;SDS011;48555;50.952;-0.120;2024-02-04T02:43:42;5.15;;;1.90;;
61393;SDS011;48555;50.952;-0.120;2024-02-04T02:46:09;8.45;;;2.08;;
61393;SDS011;48555;50.952;-0.120;2024-02-04T02:48:35;6.50;;;1.98;;
61393;SDS011;48555;50.952;-0.120;2024-02-04T02:51:01;4.95;;;1.80;;
61393;SDS011;48555;50.952;-0.120;2024-02-04T02:53:26;6.30;;;2.40;;
61393;SDS011;48555;50.952;-0.120;2024-02-04T02:55:51;5.38;;;1.70;;
61393;SDS011;48555;50.952;-0.120;2024-02-04T02:58:17;5.20;;;1.90;;
61393;SDS011;48555;50.952;-0.120;2024-02-04T03:00:42;7.05;;;1.70;;
61393;SDS011;48555;50.952;-0.120;2024-02-04T03:03:08;7.20;;;1.90;;
61393;SDS011;48555;50.952;-0.120;2024-02-04T03:05:34;5.78;;;1.92;;
61393;SDS011;48555;50.952;-0.120;2024-02-04T03:07:59;8.88;;;1.80;;
61393;SDS011;48555;50.952;-0.120;2024-02-04T03:10:24;4.10;;;1.60;;
61393;SDS011;48555;50.952;-0.120;2024-02-04T03:12:49;5.05;;;1.70;;
61393;SDS011;48555;50.952;-0.120;2024-02-04T03:15:15;3.83;;;1.77;;
61393;SDS011;48555;50.952;-0.120;2024-02-04T03:17:42;5.25;;;1.45;;
61393;SDS011;48555;50.952;-0.120;2024-02-04T03:20:07;5.88;;;1.50;;
61393;SDS011;48555;50.952;-0.120;2024-02-04T03:22:33;3.60;;;1.50;;
61393;SDS011;48555;50.952;-0.120;2024-02-04T03:24:59;4.43;;;1.60;;
61393;SDS011;48555;50.952;-0.120;2024-02-04T03:27:24;4.80;;;1.73;;
61393;SDS011;48555;50.952;-0.120;2024-02-04T03:29:49;5.45;;;1.50;;
61393;SDS011;48555;50.952;-0.120;2024-02-04T03:32:15;5.30;;;1.60;;
61393;SDS011;48555;50.952;-0.120;2024-02-04T03:34:43;4.82;;;1.55;;
61393;SDS011;48555;50.952;-0.120;2024-02-04T03:37:09;3.63;;;1.20;;
61393;SDS011;48555;50.952;-0.120;2024-02-04T03:39:34;5.72;;;1.77;;
61393;SDS011;48555;50.952;-0.120;2024-02-04T03:42:00;6.90;;;2.00;;
61393;SDS011;48555;50.952;-0.120;2024-02-04T03:44:25;2.75;;;1.38;;
61393;SDS011;48555;50.952;-0.120;2024-02-04T03:46:50;4.05;;;1.27;;
61393;SDS011;48555;50.952;-0.120;2024-02-04T03:49:16;2.33;;;1.38;;
61393;SDS011;48555;50.952;-0.120;2024-02-04T03:51:42;4.75;;;1.48;;
61393;SDS011;48555;50.952;-0.120;2024-02-04T03:54:07;3.50;;;1.35;;
61393;SDS011;48555;50.952;-0.120;2024-02-04T03:56:33;4.35;;;1.40;;
61393;SDS011;48555;50.952;-0.120;2024-02-04T03:58:58;3.92;;;1.27;;
61393;SDS011;48555;50.952;-0.120;2024-02-04T04:01:24;4.15;;;1.30;;
61393;SDS011;48555;50.952;-0.120;2024-02-04T04:03:49;4.28;;;1.52;;
61393;SDS011;48555;50.952;-0.120;2024-02-04T04:06:14;4.00;;;1.40;;
61393;SDS011;48555;50.952;-0.120;2024-02-04T04:08:40;2.40;;;1.10;;
61393;SDS011;48555;50.952;-0.120;2024-02-04T04:11:07;4.90;;;1.40;;
61393;SDS011;48555;50.952;-0.120;2024-02-04T04:13:34;2.05;;;1.13;;
61393;SDS011;48555;50.952;-0.120;2024-02-04T04:16:00;4.53;;;1.45;;
61393;SDS011;48555;50.952;-0.120;2024-02-04T04:18:25;3.65;;;1.27;;
61393;SDS011;48555;50.952;-0.120;2024-02-04T04:20:51;4.82;;;1.48;;
61393;SDS011;48555;50.952;-0.120;2024-02-04T04:23:16;3.55;;;1.50;;
61393;SDS011;48555;50.952;-0.120;2024-02-04T04:25:41;7.05;;;1.55;;
61393;SDS011;48555;50.952;-0.120;2024-02-04T04:28:07;5.25;;;1.58;;
61393;SDS011;48555;50.952;-0.120;2024-02-04T04:30:32;5.20;;;1.63;;
61393;SDS011;48555;50.952;-0.120;2024-02-04T04:32:57;2.95;;;1.42;;
61393;SDS011;48555;50.952;-0.120;2024-02-04T04:35:25;4.03;;;1.75;;
61393;SDS011;48555;50.952;-0.120;2024-02-04T04:37:50;5.72;;;1.73;;
61393;SDS011;48555;50.952;-0.120;2024-02-04T04:40:16;3.75;;;1.77;;
61393;SDS011;48555;50.952;-0.120;2024-02-04T04:42:41;2.55;;;1.58;;
61393;SDS011;48555;50.952;-0.120;2024-02-04T04:45:07;5.05;;;1.75;;
61393;SDS011;48555;50.952;-0.120;2024-02-04T04:47:36;4.20;;;1.65;;
61393;SDS011;48555;50.952;-0.120;2024-02-04T04:50:01;4.18;;;1.60;;
61393;SDS011;48555;50.952;-0.120;2024-02-04T04:52:27;4.20;;;1.60;;
61393;SDS011;48555;50.952;-0.120;2024-02-04T04:54:52;4.28;;;1.83;;
61393;SDS011;48555;50.952;-0.120;2024-02-04T04:57:18;5.53;;;1.88;;
61393;SDS011;48555;50.952;-0.120;2024-02-04T04:59:44;4.68;;;1.70;;
61393;SDS011;48555;50.952;-0.120;2024-02-04T05:02:09;3.85;;;1.63;;
61393;SDS011;48555;50.952;-0.120;2024-02-04T05:04:36;4.75;;;1.77;;
61393;SDS011;48555;50.952;-0.120;2024-02-04T05:07:01;3.58;;;1.65;;
61393;SDS011;48555;50.952;-0.120;2024-02-04T05:09:26;4.50;;;1.88;;
61393;SDS011;48555;50.952;-0.120;2024-02-04T05:11:52;5.15;;;1.80;;
61393;SDS011;48555;50.952;-0.120;2024-02-04T05:14:17;4.10;;;1.70;;
61393;SDS011;48555;50.952;-0.120;2024-02-04T05:16:42;4.28;;;1.42;;
61393;SDS011;48555;50.952;-0.120;2024-02-04T05:19:09;3.45;;;1.60;;
61393;SDS011;48555;50.952;-0.120;2024-02-04T05:21:37;3.83;;;1.48;;
61393;SDS011;48555;50.952;-0.120;2024-02-04T05:24:04;4.93;;;1.60;;
61393;SDS011;48555;50.952;-0.120;2024-02-04T05:26:29;6.55;;;2.13;;
61393;SDS011;48555;50.952;-0.120;2024-02-04T05:28:55;3.72;;;1.50;;
61393;SDS011;48555;50.952;-0.120;2024-02-04T05:31:20;4.35;;;1.88;;
61393;SDS011;48555;50.952;-0.120;2024-02-04T05:33:45;5.30;;;2.20;;
61393;SDS011;48555;50.952;-0.120;2024-02-04T05:36:10;5.63;;;2.10;;
61393;SDS011;48555;50.952;-0.120;2024-02-04T05:38:36;8.88;;;2.28;;
61393;SDS011;48555;50.952;-0.120;2024-02-04T05:41:01;5.65;;;2.60;;
61393;SDS011;48555;50.952;-0.120;2024-02-04T05:43:26;7.78;;;2.50;;
61393;SDS011;48555;50.952;-0.120;2024-02-04T05:45:52;6.65;;;2.25;;
61393;SDS011;48555;50.952;-0.120;2024-02-04T05:48:17;6.18;;;2.80;;
61393;SDS011;48555;50.952;-0.120;2024-02-04T05:50:42;7.47;;;3.00;;
61393;SDS011;48555;50.952;-0.120;2024-02-04T05:53:08;7.07;;;2.72;;
61393;SDS011;48555;50.952;-0.120;2024-02-04T05:55:33;9.60;;;3.03;;
61393;SDS011;48555;50.952;-0.120;2024-02-04T05:57:59;8.15;;;2.65;;
61393;SDS011;48555;50.952;-0.120;2024-02-04T06:00:24;5.13;;;2.22;;
61393;SDS011;48555;50.952;-0.120;2024-02-04T06:02:50;7.63;;;2.25;;
61393;SDS011;48555;50.952;-0.120;2024-02-04T06:05:16;6.70;;;1.83;;
61393;SDS011;48555;50.952;-0.120;2024-02-04T06:07:44;5.47;;;2.13;;
61393;SDS011;48555;50.952;-0.120;2024-02-04T06:10:09;6.65;;;1.98;;
61393;SDS011;48555;50.952;-0.120;2024-02-04T06:12:35;6.20;;;1.80;;
61393;SDS011;48555;50.952;-0.120;2024-02-04T06:15:00;6.45;;;1.98;;
61393;SDS011;48555;50.952;-0.120;2024-02-04T06:17:25;6.38;;;1.95;;
61393;SDS011;48555;50.952;-0.120;2024-02-04T06:19:51;5.45;;;1.73;;
61393;SDS011;48555;50.952;-0.120;2024-02-04T06:22:16;4.80;;;1.80;;
61393;SDS011;48555;50.952;-0.120;2024-02-04T06:24:41;6.40;;;1.65;;
61393;SDS011;48555;50.952;-0.120;2024-02-04T06:27:13;6.53;;;1.80;;
61393;SDS011;48555;50.952;-0.120;2024-02-04T06:29:38;4.85;;;1.88;;
61393;SDS011;48555;50.952;-0.120;2024-02-04T06:32:04;6.53;;;1.90;;
61393;SDS011;48555;50.952;-0.120;2024-02-04T06:34:30;7.50;;;2.00;;
61393;SDS011;48555;50.952;-0.120;2024-02-04T06:36:55;5.93;;;1.63;;
61393;SDS011;48555;50.952;-0.120;2024-02-04T06:39:20;8.63;;;2.03;;
61393;SDS011;48555;50.952;-0.120;2024-02-04T06:41:46;9.20;;;2.38;;
61393;SDS011;48555;50.952;-0.120;2024-02-04T06:44:11;5.53;;;1.65;;
61393;SDS011;48555;50.952;-0.120;2024-02-04T06:46:37;6.55;;;1.80;;
61393;SDS011;48555;50.952;-0.120;2024-02-04T06:49:02;6.43;;;1.80;;
61393;SDS011;48555;50.952;-0.120;2024-02-04T06:51:27;9.48;;;2.10;;
61393;SDS011;48555;50.952;-0.120;2024-02-04T06:53:53;8.18;;;2.10;;
61393;SDS011;48555;50.952;-0.120;2024-02-04T06:56:18;8.02;;;1.90;;
61393;SDS011;48555;50.952;-0.120;2024-02-04T06:58:43;8.60;;;2.67;;
61393;SDS011;48555;50.952;-0.120;2024-02-04T07:01:09;10.32;;;2.45;;
61393;SDS011;48555;50.952;-0.120;2024-02-04T07:03:36;11.05;;;2.33;;
61393;SDS011;48555;50.952;-0.120;2024-02-04T07:06:01;9.05;;;2.30;;
61393;SDS011;48555;50.952;-0.120;2024-02-04T07:08:27;7.28;;;2.20;;
61393;SDS011;48555;50.952;-0.120;2024-02-04T07:10:52;9.43;;;2.40;;
61393;SDS011;48555;50.952;-0.120;2024-02-04T07:13:18;8.18;;;2.80;;
61393;SDS011;48555;50.952;-0.120;2024-02-04T07:15:44;12.70;;;3.28;;
61393;SDS011;48555;50.952;-0.120;2024-02-04T07:18:10;10.48;;;3.00;;
61393;SDS011;48555;50.952;-0.120;2024-02-04T07:20:36;9.82;;;3.63;;
61393;SDS011;48555;50.952;-0.120;2024-02-04T07:23:02;11.27;;;3.50;;
61393;SDS011;48555;50.952;-0.120;2024-02-04T07:25:27;12.23;;;3.53;;
61393;SDS011;48555;50.952;-0.120;2024-02-04T07:27:53;10.32;;;3.25;;
61393;SDS011;48555;50.952;-0.120;2024-02-04T07:30:18;8.45;;;2.92;;
61393;SDS011;48555;50.952;-0.120;2024-02-04T07:32:45;12.35;;;3.03;;
61393;SDS011;48555;50.952;-0.120;2024-02-04T07:35:10;10.30;;;2.63;;
61393;SDS011;48555;50.952;-0.120;2024-02-04T07:37:35;14.95;;;2.75;;
61393;SDS011;48555;50.952;-0.120;2024-02-04T07:40:01;10.35;;;2.95;;
61393;SDS011;48555;50.952;-0.120;2024-02-04T07:42:27;11.75;;;2.70;;
61393;SDS011;48555;50.952;-0.120;2024-02-04T07:44:53;8.25;;;2.50;;
61393;SDS011;48555;50.952;-0.120;2024-02-04T07:47:18;8.63;;;2.20;;
61393;SDS011;48555;50.952;-0.120;2024-02-04T07:49:46;8.55;;;2.65;;
61393;SDS011;48555;50.952;-0.120;2024-02-04T07:52:12;10.65;;;2.55;;
61393;SDS011;48555;50.952;-0.120;2024-02-04T07:54:37;10.15;;;2.75;;
61393;SDS011;48555;50.952;-0.120;2024-02-04T07:57:03;11.68;;;2.53;;
61393;SDS011;48555;50.952;-0.120;2024-02-04T07:59:28;9.50;;;2.42;;
61393;SDS011;48555;50.952;-0.120;2024-02-04T08:01:54;8.90;;;2.55;;
61393;SDS011;48555;50.952;-0.120;2024-02-04T08:04:19;9.25;;;2.80;;
61393;SDS011;48555;50.952;-0.120;2024-02-04T08:06:44;12.27;;;2.47;;
61393;SDS011;48555;50.952;-0.120;2024-02-04T08:09:10;10.50;;;2.00;;
61393;SDS011;48555;50.952;-0.120;2024-02-04T08:11:35;10.60;;;3.03;;
61393;SDS011;48555;50.952;-0.120;2024-02-04T08:14:00;11.00;;;2.53;;
61393;SDS011;48555;50.952;-0.120;2024-02-04T08:16:26;13.38;;;2.88;;
61393;SDS011;48555;50.952;-0.120;2024-02-04T08:18:51;12.05;;;2.30;;
61393;SDS011;48555;50.952;-0.120;2024-02-04T08:21:16;11.15;;;3.63;;
61393;SDS011;48555;50.952;-0.120;2024-02-04T08:23:42;9.35;;;2.20;;
61393;SDS011;48555;50.952;-0.120;2024-02-04T08:26:09;6.32;;;2.08;;
61393;SDS011;48555;50.952;-0.120;2024-02-04T08:28:34;12.02;;;2.63;;
61393;SDS011;48555;50.952;-0.120;2024-02-04T08:31:00;11.55;;;2.30;;
61393;SDS011;48555;50.952;-0.120;2024-02-04T08:33:25;10.05;;;2.47;;
61393;SDS011;48555;50.952;-0.120;2024-02-04T08:35:50;9.15;;;2.13;;
61393;SDS011;48555;50.952;-0.120;2024-02-04T08:38:16;11.13;;;2.45;;
61393;SDS011;48555;50.952;-0.120;2024-02-04T08:40:41;12.43;;;2.22;;
61393;SDS011;48555;50.952;-0.120;2024-02-04T08:43:06;7.53;;;2.13;;
61393;SDS011;48555;50.952;-0.120;2024-02-04T08:45:32;12.13;;;2.40;;
61393;SDS011;48555;50.952;-0.120;2024-02-04T08:47:57;11.57;;;2.22;;
61393;SDS011;48555;50.952;-0.120;2024-02-04T08:50:22;14.77;;;2.72;;
61393;SDS011;48555;50.952;-0.120;2024-02-04T08:52:47;11.13;;;2.50;;
61393;SDS011;48555;50.952;-0.120;2024-02-04T08:55:13;11.30;;;2.65;;
61393;SDS011;48555;50.952;-0.120;2024-02-04T08:57:38;10.73;;;2.38;;
61393;SDS011;48555;50.952;-0.120;2024-02-04T09:00:04;8.95;;;2.03;;
61393;SDS011;48555;50.952;-0.120;2024-02-04T09:02:33;13.88;;;2.33;;
61393;SDS011;48555;50.952;-0.120;2024-02-04T09:04:59;12.52;;;2.50;;
61393;SDS011;48555;50.952;-0.120;2024-02-04T09:07:25;13.88;;;2.63;;
61393;SDS011;48555;50.952;-0.120;2024-02-04T09:09:50;11.32;;;2.50;;
61393;SDS011;48555;50.952;-0.120;2024-02-04T09:12:15;10.50;;;2.53;;
61393;SDS011;48555;50.952;-0.120;2024-02-04T09:14:41;11.75;;;2.75;;
61393;SDS011;48555;50.952;-0.120;2024-02-04T09:17:06;10.85;;;2.58;;
61393;SDS011;48555;50.952;-0.120;2024-02-04T09:19:32;11.43;;;2.53;;
61393;SDS011;48555;50.952;-0.120;2024-02-04T09:21:57;15.73;;;3.28;;
61393;SDS011;48555;50.952;-0.120;2024-02-04T09:24:22;11.82;;;2.83;;
61393;SDS011;48555;50.952;-0.120;2024-02-04T09:26:48;10.50;;;2.35;;
61393;SDS011;48555;50.952;-0.120;2024-02-04T09:29:14;8.07;;;2.40;;
61393;SDS011;48555;50.952;-0.120;2024-02-04T09:31:39;11.75;;;2.40;;
61393;SDS011;48555;50.952;-0.120;2024-02-04T09:34:04;8.98;;;2.80;;
61393;SDS011;48555;50.952;-0.120;2024-02-04T09:36:30;13.00;;;2.85;;
61393;SDS011;48555;50.952;-0.120;2024-02-04T09:38:55;12.32;;;2.50;;
61393;SDS011;48555;50.952;-0.120;2024-02-04T09:41:21;16.33;;;3.00;;
61393;SDS011;48555;50.952;-0.120;2024-02-04T09:43:48;13.70;;;2.80;;
61393;SDS011;48555;50.952;-0.120;2024-02-04T09:46:15;14.70;;;2.88;;
61393;SDS011;48555;50.952;-0.120;2024-02-04T09:48:41;12.82;;;2.90;;
61393;SDS011;48555;50.952;-0.120;2024-02-04T09:51:10;17.25;;;3.20;;
61393;SDS011;48555;50.952;-0.120;2024-02-04T09:53:35;14.65;;;3.75;;
61393;SDS011;48555;50.952;-0.120;2024-02-04T09:56:05;11.02;;;3.00;;
61393;SDS011;48555;50.952;-0.120;2024-02-04T09:58:32;14.07;;;2.83;;
61393;SDS011;48555;50.952;-0.120;2024-02-04T10:00:58;14.38;;;2.78;;
61393;SDS011;48555;50.952;-0.120;2024-02-04T10:03:25;14.70;;;3.20;;
61393;SDS011;48555;50.952;-0.120;2024-02-04T10:05:51;10.50;;;2.35;;
61393;SDS011;48555;50.952;-0.120;2024-02-04T10:08:16;14.98;;;3.13;;
61393;SDS011;48555;50.952;-0.120;2024-02-04T10:10:41;11.13;;;2.55;;
61393;SDS011;48555;50.952;-0.120;2024-02-04T10:13:10;14.40;;;2.97;;
61393;SDS011;48555;50.952;-0.120;2024-02-04T10:15:35;11.43;;;2.83;;
61393;SDS011;48555;50.952;-0.120;2024-02-04T10:18:07;10.40;;;2.65;;
61393;SDS011;48555;50.952;-0.120;2024-02-04T10:20:33;21.83;;;3.58;;
61393;SDS011;48555;50.952;-0.120;2024-02-04T10:22:59;14.32;;;3.13;;
61393;SDS011;48555;50.952;-0.120;2024-02-04T10:25:26;24.00;;;10.13;;
61393;SDS011;48555;50.952;-0.120;2024-02-04T10:27:52;20.38;;;5.57;;
61393;SDS011;48555;50.952;-0.120;2024-02-04T10:30:19;18.85;;;5.95;;
61393;SDS011;48555;50.952;-0.120;2024-02-04T10:32:51;16.83;;;7.72;;
61393;SDS011;48555;50.952;-0.120;2024-02-04T10:35:17;20.27;;;5.60;;
61393;SDS011;48555;50.952;-0.120;2024-02-04T10:37:44;15.43;;;4.85;;
61393;SDS011;48555;50.952;-0.120;2024-02-04T10:40:10;13.18;;;5.88;;
61393;SDS011;48555;50.952;-0.120;2024-02-04T10:42:36;16.83;;;6.20;;
61393;SDS011;48555;50.952;-0.120;2024-02-04T10:45:06;20.60;;;4.72;;
61393;SDS011;48555;50.952;-0.120;2024-02-04T10:47:34;13.13;;;3.47;;
61393;SDS011;48555;50.952;-0.120;2024-02-04T10:50:02;12.82;;;3.55;;
61393;SDS011;48555;50.952;-0.120;2024-02-04T10:52:28;11.18;;;3.40;;
61393;SDS011;48555;50.952;-0.120;2024-02-04T10:55:00;11.68;;;2.90;;
61393;SDS011;48555;50.952;-0.120;2024-02-04T10:57:28;12.00;;;2.63;;
61393;SDS011;48555;50.952;-0.120;2024-02-04T10:59:55;9.35;;;3.20;;
61393;SDS011;48555;50.952;-0.120;2024-02-04T11:02:21;7.10;;;3.45;;
61393;SDS011;48555;50.952;-0.120;2024-02-04T11:04:48;10.77;;;6.40;;
61393;SDS011;48555;50.952;-0.120;2024-02-04T11:07:14;8.50;;;2.90;;
61393;SDS011;48555;50.952;-0.120;2024-02-04T11:09:42;11.15;;;3.55;;
61393;SDS011;48555;50.952;-0.120;2024-02-04T11:12:11;11.43;;;2.70;;
61393;SDS011;48555;50.952;-0.120;2024-02-04T11:14:40;7.28;;;3.10;;
61393;SDS011;48555;50.952;-0.120;2024-02-04T11:22:32;6.22;;;2.85;;
61393;SDS011;48555;50.952;-0.120;2024-02-04T11:27:49;11.27;;;2.58;;
61393;SDS011;48555;50.952;-0.120;2024-02-04T11:30:15;13.80;;;3.03;;
61393;SDS011;48555;50.952;-0.120;2024-02-04T11:32:40;10.73;;;2.90;;
61393;SDS011;48555;50.952;-0.120;2024-02-04T11:35:06;10.52;;;3.08;;
61393;SDS011;48555;50.952;-0.120;2024-02-04T11:37:32;7.75;;;2.50;;
61393;SDS011;48555;50.952;-0.120;2024-02-04T11:39:59;13.95;;;2.95;;
61393;SDS011;48555;50.952;-0.120;2024-02-04T11:42:24;12.07;;;4.03;;
61393;SDS011;48555;50.952;-0.120;2024-02-04T11:44:50;11.07;;;3.72;;
61393;SDS011;48555;50.952;-0.120;2024-02-04T11:47:36;12.52;;;4.15;;
61393;SDS011;48555;50.952;-0.120;2024-02-04T11:50:02;14.18;;;4.00;;
61393;SDS011;48555;50.952;-0.120;2024-02-04T11:52:28;9.00;;;2.78;;
61393;SDS011;48555;50.952;-0.120;2024-02-04T11:54:54;11.30;;;2.90;;
61393;SDS011;48555;50.952;-0.120;2024-02-04T11:57:19;11.10;;;2.83;;
61393;SDS011;48555;50.952;-0.120;2024-02-04T11:59:46;12.07;;;2.80;;
61393;SDS011;48555;50.952;-0.120;2024-02-04T12:02:12;10.68;;;2.67;;
61393;SDS011;48555;50.952;-0.120;2024-02-04T12:04:40;9.77;;;2.50;;
61393;SDS011;48555;50.952;-0.120;2024-02-04T12:07:06;8.35;;;2.25;;
61393;SDS011;48555;50.952;-0.120;2024-02-04T12:09:33;7.90;;;2.35;;
61393;SDS011;48555;50.952;-0.120;2024-02-04T12:12:00;9.70;;;2.60;;
61393;SDS011;48555;50.952;-0.120;2024-02-04T12:14:25;9.57;;;2.47;;
61393;SDS011;48555;50.952;-0.120;2024-02-04T12:16:51;8.10;;;2.30;;
61393;SDS011;48555;50.952;-0.120;2024-02-04T12:19:17;8.55;;;2.42;;
61393;SDS011;48555;50.952;-0.120;2024-02-04T12:21:42;7.57;;;2.35;;
61393;SDS011;48555;50.952;-0.120;2024-02-04T12:24:08;9.20;;;2.25;;
61393;SDS011;48555;50.952;-0.120;2024-02-04T12:26:33;6.32;;;2.20;;
61393;SDS011;48555;50.952;-0.120;2024-02-04T12:28:59;9.55;;;2.50;;
61393;SDS011;48555;50.952;-0.120;2024-02-04T12:31:25;9.52;;;2.78;;
61393;SDS011;48555;50.952;-0.120;2024-02-04T12:33:57;11.55;;;2.50;;
61393;SDS011;48555;50.952;-0.120;2024-02-04T12:36:30;9.60;;;2.63;;
61393;SDS011;48555;50.952;-0.120;2024-02-04T12:38:57;7.97;;;2.45;;
61393;SDS011;48555;50.952;-0.120;2024-02-04T12:41:25;10.48;;;2.60;;
61393;SDS011;48555;50.952;-0.120;2024-02-04T12:43:51;8.80;;;2.30;;
61393;SDS011;48555;50.952;-0.120;2024-02-04T12:46:18;9.48;;;2.53;;
61393;SDS011;48555;50.952;-0.120;2024-02-04T12:48:44;10.70;;;2.95;;
61393;SDS011;48555;50.952;-0.120;2024-02-04T12:51:09;13.82;;;2.70;;
61393;SDS011;48555;50.952;-0.120;2024-02-04T12:53:36;7.32;;;3.40;;
61393;SDS011;48555;50.952;-0.120;2024-02-04T12:56:02;7.88;;;3.00;;
61393;SDS011;48555;50.952;-0.120;2024-02-04T12:58:27;10.55;;;3.38;;
61393;SDS011;48555;50.952;-0.120;2024-02-04T13:01:02;9.80;;;3.47;;
61393;SDS011;48555;50.952;-0.120;2024-02-04T13:03:31;8.27;;;2.78;;
61393;SDS011;48555;50.952;-0.120;2024-02-04T13:05:59;7.15;;;2.38;;
61393;SDS011;48555;50.952;-0.120;2024-02-04T13:08:25;5.88;;;3.40;;
61393;SDS011;48555;50.952;-0.120;2024-02-04T13:10:55;7.95;;;3.72;;
61393;SDS011;48555;50.952;-0.120;2024-02-04T13:13:21;7.82;;;3.40;;
61393;SDS011;48555;50.952;-0.120;2024-02-04T13:15:46;9.57;;;3.35;;
61393;SDS011;48555;50.952;-0.120;2024-02-04T13:18:12;10.15;;;3.10;;
61393;SDS011;48555;50.952;-0.120;2024-02-04T13:20:40;9.73;;;3.03;;
61393;SDS011;48555;50.952;-0.120;2024-02-04T13:23:07;10.13;;;2.95;;
61393;SDS011;48555;50.952;-0.120;2024-02-04T13:25:33;9.48;;;3.20;;
61393;SDS011;48555;50.952;-0.120;2024-02-04T13:27:59;9.90;;;2.80;;
61393;SDS011;48555;50.952;-0.120;2024-02-04T13:30:25;7.47;;;2.40;;
61393;SDS011;48555;50.952;-0.120;2024-02-04T13:32:50;6.13;;;1.85;;
61393;SDS011;48555;50.952;-0.120;2024-02-04T13:35:16;8.68;;;2.20;;
61393;SDS011;48555;50.952;-0.120;2024-02-04T13:37:42;9.10;;;2.08;;
61393;SDS011;48555;50.952;-0.120;2024-02-04T13:40:16;8.32;;;2.50;;
61393;SDS011;48555;50.952;-0.120;2024-02-04T13:42:42;6.93;;;2.15;;
61393;SDS011;48555;50.952;-0.120;2024-02-04T13:45:08;10.48;;;2.40;;
61393;SDS011;48555;50.952;-0.120;2024-02-04T13:47:33;9.77;;;2.83;;
61393;SDS011;48555;50.952;-0.120;2024-02-04T13:49:59;6.85;;;1.83;;
61393;SDS011;48555;50.952;-0.120;2024-02-04T13:52:25;12.20;;;2.63;;
61393;SDS011;48555;50.952;-0.120;2024-02-04T13:54:50;15.60;;;3.10;;
61393;SDS011;48555;50.952;-0.120;2024-02-04T13:57:16;7.72;;;2.00;;
61393;SDS011;48555;50.952;-0.120;2024-02-04T13:59:41;11.00;;;2.42;;
61393;SDS011;48555;50.952;-0.120;2024-02-04T14:02:07;15.45;;;3.10;;
61393;SDS011;48555;50.952;-0.120;2024-02-04T14:04:33;13.05;;;3.25;;
61393;SDS011;48555;50.952;-0.120;2024-02-04T14:06:59;9.35;;;2.72;;
61393;SDS011;48555;50.952;-0.120;2024-02-04T14:09:24;14.75;;;3.22;;
61393;SDS011;48555;50.952;-0.120;2024-02-04T14:11:50;11.93;;;3.10;;
61393;SDS011;48555;50.952;-0.120;2024-02-04T14:14:16;8.88;;;3.05;;
61393;SDS011;48555;50.952;-0.120;2024-02-04T14:16:41;15.55;;;3.20;;
61393;SDS011;48555;50.952;-0.120;2024-02-04T14:19:07;11.48;;;2.90;;
61393;SDS011;48555;50.952;-0.120;2024-02-04T14:21:32;13.15;;;3.58;;
61393;SDS011;48555;50.952;-0.120;2024-02-04T14:23:57;11.90;;;2.85;;
61393;SDS011;48555;50.952;-0.120;2024-02-04T14:26:23;13.13;;;2.75;;
61393;SDS011;48555;50.952;-0.120;2024-02-04T14:28:48;12.93;;;3.35;;
61393;SDS011;48555;50.952;-0.120;2024-02-04T14:31:13;11.63;;;3.05;;